sensor_id;sensor_type;location;lat;lon;timestamp;P1;durP1;ratioP1;P2;durP2;ratioP2
16845;SDS011;8539;53.188;8.696;2023-06-10T00:01:51;8.38;;;4.25;;
16845;SDS011;8539;53.188;8.696;2023-06-10T00:04:20;11.63;;;5.70;;
16845;SDS011;8539;53.188;8.696;2023-06-10T00:06:47;11.90;;;4.82;;
16845;SDS011;8539;53.188;8.696;2023-06-10T00:09:15;10.27;;;4.97;;
16845;SDS011;8539;53.188;8.696;2023-06-10T00:11:41;8.15;;;4.45;;
16845;SDS011;8539;53.188;8.696;2023-06-10T00:14:08;12.57;;;5.75;;
16845;SDS011;8539;53.188;8.696;2023-06-10T00:16:34;11.18;;;4.93;;
16845;SDS011;8539;53.188;8.696;2023-06-10T00:19:02;14.70;;;5.15;;
16845;SDS011;8539;53.188;8.696;2023-06-10T00:21:32;11.82;;;5.50;;
16845;SDS011;8539;53.188;8.696;2023-06-10T00:24:05;10.88;;;4.57;;
16845;SDS011;8539;53.188;8.696;2023-06-10T00:26:40;11.25;;;4.45;;
16845;SDS011;8539;53.188;8.696;2023-06-10T00:29:07;15.20;;;5.32;;
16845;SDS011;8539;53.188;8.696;2023-06-10T00:31:33;13.30;;;5.25;;
16845;SDS011;8539;53.188;8.696;2023-06-10T00:34:01;17.13;;;6.30;;
16845;SDS011;8539;53.188;8.696;2023-06-10T00:36:28;11.32;;;5.97;;
16845;SDS011;8539;53.188;8.696;2023-06-10T00:38:54;15.43;;;5.18;;
16845;SDS011;8539;53.188;8.696;2023-06-10T00:41:20;11.20;;;5.63;;
16845;SDS011;8539;53.188;8.696;2023-06-10T00:43:46;12.25;;;5.30;;
16845;SDS011;8539;53.188;8.696;2023-06-10T00:46:13;16.95;;;6.57;;
16845;SDS011;8539;53.188;8.696;2023-06-10T00:48:40;12.77;;;5.03;;
16845;SDS011;8539;53.188;8.696;2023-06-10T00:51:07;9.02;;;4.68;;
16845;SDS011;8539;53.188;8.696;2023-06-10T00:53:40;14.05;;;6.10;;
16845;SDS011;8539;53.188;8.696;2023-06-10T00:56:07;11.95;;;5.50;;
16845;SDS011;8539;53.188;8.696;2023-06-10T00:58:33;14.02;;;5.20;;
16845;SDS011;8539;53.188;8.696;2023-06-10T01:01:00;13.90;;;6.25;;
16845;SDS011;8539;53.188;8.696;2023-06-10T01:03:27;14.88;;;5.53;;
16845;SDS011;8539;53.188;8.696;2023-06-10T01:05:57;16.63;;;5.45;;
16845;SDS011;8539;53.188;8.696;2023-06-10T01:08:32;19.60;;;6.38;;
16845;SDS011;8539;53.188;8.696;2023-06-10T01:11:07;16.88;;;6.60;;
16845;SDS011;8539;53.188;8.696;2023-06-10T01:13:39;13.68;;;5.72;;
16845;SDS011;8539;53.188;8.696;2023-06-10T01:16:06;14.93;;;6.72;;
16845;SDS011;8539;53.188;8.696;2023-06-10T01:18:34;13.32;;;6.55;;
16845;SDS011;8539;53.188;8.696;2023-06-10T01:21:00;17.88;;;7.00;;
16845;SDS011;8539;53.188;8.696;2023-06-10T01:23:27;14.75;;;5.72;;
16845;SDS011;8539;53.188;8.696;2023-06-10T01:25:55;19.20;;;6.40;;
16845;SDS011;8539;53.188;8.696;2023-06-10T01:28:40;15.38;;;6.50;;
16845;SDS011;8539;53.188;8.696;2023-06-10T01:31:11;17.90;;;6.32;;
16845;SDS011;8539;53.188;8.696;2023-06-10T01:33:43;12.15;;;5.25;;
16845;SDS011;8539;53.188;8.696;2023-06-10T01:36:15;13.15;;;5.72;;
16845;SDS011;8539;53.188;8.696;2023-06-10T01:38:43;15.70;;;6.20;;
16845;SDS011;8539;53.188;8.696;2023-06-10T01:41:10;12.57;;;6.55;;
16845;SDS011;8539;53.188;8.696;2023-06-10T01:43:38;9.13;;;5.65;;
16845;SDS011;8539;53.188;8.696;2023-06-10T01:46:05;7.82;;;5.32;;
16845;SDS011;8539;53.188;8.696;2023-06-10T01:48:32;10.50;;;5.72;;
16845;SDS011;8539;53.188;8.696;2023-06-10T01:50:58;13.90;;;6.45;;
16845;SDS011;8539;53.188;8.696;2023-06-10T01:53:24;14.40;;;6.13;;
16845;SDS011;8539;53.188;8.696;2023-06-10T01:55:50;12.93;;;6.35;;
16845;SDS011;8539;53.188;8.696;2023-06-10T01:58:16;14.98;;;6.25;;
16845;SDS011;8539;53.188;8.696;2023-06-10T02:00:42;16.20;;;5.93;;
16845;SDS011;8539;53.188;8.696;2023-06-10T02:03:08;12.70;;;6.50;;
16845;SDS011;8539;53.188;8.696;2023-06-10T02:05:35;16.23;;;7.00;;
16845;SDS011;8539;53.188;8.696;2023-06-10T02:08:01;16.25;;;6.75;;
16845;SDS011;8539;53.188;8.696;2023-06-10T02:10:28;12.38;;;7.00;;
16845;SDS011;8539;53.188;8.696;2023-06-10T02:12:54;14.02;;;6.32;;
16845;SDS011;8539;53.188;8.696;2023-06-10T02:15:20;15.50;;;6.85;;
16845;SDS011;8539;53.188;8.696;2023-06-10T02:17:46;13.85;;;6.55;;
16845;SDS011;8539;53.188;8.696;2023-06-10T02:20:14;19.10;;;8.10;;
16845;SDS011;8539;53.188;8.696;2023-06-10T02:22:41;17.02;;;6.82;;
16845;SDS011;8539;53.188;8.696;2023-06-10T02:25:09;15.95;;;6.68;;
16845;SDS011;8539;53.188;8.696;2023-06-10T02:27:35;22.83;;;8.15;;
16845;SDS011;8539;53.188;8.696;2023-06-10T02:30:01;17.00;;;6.68;;
16845;SDS011;8539;53.188;8.696;2023-06-10T02:32:28;15.32;;;6.72;;
16845;SDS011;8539;53.188;8.696;2023-06-10T02:34:54;16.15;;;7.18;;
16845;SDS011;8539;53.188;8.696;2023-06-10T02:37:21;14.93;;;7.90;;
16845;SDS011;8539;53.188;8.696;2023-06-10T02:39:47;16.83;;;7.03;;
16845;SDS011;8539;53.188;8.696;2023-06-10T02:42:13;13.48;;;6.35;;
16845;SDS011;8539;53.188;8.696;2023-06-10T02:44:39;13.05;;;7.18;;
16845;SDS011;8539;53.188;8.696;2023-06-10T02:47:05;12.05;;;7.22;;
16845;SDS011;8539;53.188;8.696;2023-06-10T02:49:31;15.90;;;7.15;;
16845;SDS011;8539;53.188;8.696;2023-06-10T02:51:57;17.30;;;8.18;;
16845;SDS011;8539;53.188;8.696;2023-06-10T02:54:24;13.82;;;7.43;;
16845;SDS011;8539;53.188;8.696;2023-06-10T02:56:50;13.73;;;7.65;;
16845;SDS011;8539;53.188;8.696;2023-06-10T02:59:18;12.55;;;7.28;;
16845;SDS011;8539;53.188;8.696;2023-06-10T03:01:44;16.05;;;7.55;;
16845;SDS011;8539;53.188;8.696;2023-06-10T03:04:11;13.05;;;7.15;;
16845;SDS011;8539;53.188;8.696;2023-06-10T03:06:40;13.07;;;8.05;;
16845;SDS011;8539;53.188;8.696;2023-06-10T03:09:06;13.73;;;8.07;;
16845;SDS011;8539;53.188;8.696;2023-06-10T03:11:35;11.93;;;6.55;;
16845;SDS011;8539;53.188;8.696;2023-06-10T03:14:01;18.60;;;8.32;;
16845;SDS011;8539;53.188;8.696;2023-06-10T03:16:28;15.25;;;7.95;;
16845;SDS011;8539;53.188;8.696;2023-06-10T03:18:55;12.30;;;7.40;;
16845;SDS011;8539;53.188;8.696;2023-06-10T03:21:21;14.10;;;6.95;;
16845;SDS011;8539;53.188;8.696;2023-06-10T03:23:47;9.52;;;6.63;;
16845;SDS011;8539;53.188;8.696;2023-06-10T03:26:13;19.45;;;6.50;;
16845;SDS011;8539;53.188;8.696;2023-06-10T03:28:41;15.05;;;7.10;;
16845;SDS011;8539;53.188;8.696;2023-06-10T03:31:07;14.07;;;6.43;;
16845;SDS011;8539;53.188;8.696;2023-06-10T03:33:33;11.95;;;6.03;;
16845;SDS011;8539;53.188;8.696;2023-06-10T03:35:59;12.90;;;6.03;;
16845;SDS011;8539;53.188;8.696;2023-06-10T03:38:25;11.98;;;6.20;;
16845;SDS011;8539;53.188;8.696;2023-06-10T03:40:51;11.65;;;6.50;;
16845;SDS011;8539;53.188;8.696;2023-06-10T03:43:17;13.63;;;6.25;;
16845;SDS011;8539;53.188;8.696;2023-06-10T03:45:43;13.77;;;6.47;;
16845;SDS011;8539;53.188;8.696;2023-06-10T03:48:10;6.90;;;5.85;;
16845;SDS011;8539;53.188;8.696;2023-06-10T03:50:36;10.55;;;6.95;;
16845;SDS011;8539;53.188;8.696;2023-06-10T03:53:03;12.45;;;6.97;;
16845;SDS011;8539;53.188;8.696;2023-06-10T03:55:29;15.35;;;6.97;;
16845;SDS011;8539;53.188;8.696;2023-06-10T03:57:55;12.73;;;7.00;;
16845;SDS011;8539;53.188;8.696;2023-06-10T04:00:21;11.38;;;7.20;;
16845;SDS011;8539;53.188;8.696;2023-06-10T04:02:49;17.33;;;6.05;;
16845;SDS011;8539;53.188;8.696;2023-06-10T04:05:18;12.82;;;6.50;;
16845;SDS011;8539;53.188;8.696;2023-06-10T04:07:47;11.00;;;5.30;;
16845;SDS011;8539;53.188;8.696;2023-06-10T04:10:14;12.50;;;6.15;;
16845;SDS011;8539;53.188;8.696;2023-06-10T04:12:41;13.13;;;6.88;;
16845;SDS011;8539;53.188;8.696;2023-06-10T04:15:07;11.05;;;6.18;;
16845;SDS011;8539;53.188;8.696;2023-06-10T04:17:34;15.15;;;5.57;;
16845;SDS011;8539;53.188;8.696;2023-06-10T04:20:00;11.35;;;6.13;;
16845;SDS011;8539;53.188;8.696;2023-06-10T04:22:26;12.40;;;6.55;;
16845;SDS011;8539;53.188;8.696;2023-06-10T04:24:52;10.80;;;6.28;;
16845;SDS011;8539;53.188;8.696;2023-06-10T04:27:18;18.55;;;6.70;;
16845;SDS011;8539;53.188;8.696;2023-06-10T04:29:48;11.85;;;6.60;;
16845;SDS011;8539;53.188;8.696;2023-06-10T04:32:14;10.55;;;6.10;;
16845;SDS011;8539;53.188;8.696;2023-06-10T04:37:51;12.65;;;7.05;;
16845;SDS011;8539;53.188;8.696;2023-06-10T04:40:18;15.65;;;7.32;;
16845;SDS011;8539;53.188;8.696;2023-06-10T04:45:30;7.22;;;5.93;;
16845;SDS011;8539;53.188;8.696;2023-06-10T04:47:56;14.13;;;6.75;;
16845;SDS011;8539;53.188;8.696;2023-06-10T04:50:23;13.63;;;8.70;;
16845;SDS011;8539;53.188;8.696;2023-06-10T04:52:52;10.65;;;7.00;;
16845;SDS011;8539;53.188;8.696;2023-06-10T04:55:22;9.52;;;6.35;;
16845;SDS011;8539;53.188;8.696;2023-06-10T04:57:52;10.15;;;7.15;;
16845;SDS011;8539;53.188;8.696;2023-06-10T05:00:18;9.73;;;6.95;;
16845;SDS011;8539;53.188;8.696;2023-06-10T05:02:44;13.15;;;6.45;;
16845;SDS011;8539;53.188;8.696;2023-06-10T05:05:15;7.47;;;4.85;;
16845;SDS011;8539;53.188;8.696;2023-06-10T05:07:42;13.68;;;6.38;;
16845;SDS011;8539;53.188;8.696;2023-06-10T05:10:09;11.88;;;6.18;;
16845;SDS011;8539;53.188;8.696;2023-06-10T05:12:35;11.27;;;6.07;;
16845;SDS011;8539;53.188;8.696;2023-06-10T05:15:03;10.63;;;6.15;;
16845;SDS011;8539;53.188;8.696;2023-06-10T05:17:30;11.05;;;5.90;;
16845;SDS011;8539;53.188;8.696;2023-06-10T05:19:56;22.73;;;6.93;;
16845;SDS011;8539;53.188;8.696;2023-06-10T05:22:23;10.43;;;5.70;;
16845;SDS011;8539;53.188;8.696;2023-06-10T05:24:53;9.13;;;6.03;;
16845;SDS011;8539;53.188;8.696;2023-06-10T05:27:22;9.50;;;6.20;;
16845;SDS011;8539;53.188;8.696;2023-06-10T05:29:48;14.68;;;5.57;;
16845;SDS011;8539;53.188;8.696;2023-06-10T05:32:14;10.90;;;5.45;;
16845;SDS011;8539;53.188;8.696;2023-06-10T05:34:41;14.77;;;5.28;;
16845;SDS011;8539;53.188;8.696;2023-06-10T05:37:12;8.05;;;5.80;;
16845;SDS011;8539;53.188;8.696;2023-06-10T05:39:38;11.57;;;5.28;;
16845;SDS011;8539;53.188;8.696;2023-06-10T05:42:08;11.57;;;5.47;;
16845;SDS011;8539;53.188;8.696;2023-06-10T05:44:34;11.32;;;5.47;;
16845;SDS011;8539;53.188;8.696;2023-06-10T05:47:00;10.02;;;5.43;;
16845;SDS011;8539;53.188;8.696;2023-06-10T05:49:31;10.73;;;5.97;;
16845;SDS011;8539;53.188;8.696;2023-06-10T05:51:58;9.95;;;5.13;;
16845;SDS011;8539;53.188;8.696;2023-06-10T05:54:25;13.07;;;4.47;;
16845;SDS011;8539;53.188;8.696;2023-06-10T05:56:54;16.52;;;5.35;;
16845;SDS011;8539;53.188;8.696;2023-06-10T05:59:21;13.65;;;5.35;;
16845;SDS011;8539;53.188;8.696;2023-06-10T06:02:06;9.82;;;5.18;;
16845;SDS011;8539;53.188;8.696;2023-06-10T06:04:33;8.93;;;4.93;;
16845;SDS011;8539;53.188;8.696;2023-06-10T06:07:00;14.43;;;4.82;;
16845;SDS011;8539;53.188;8.696;2023-06-10T06:09:26;10.30;;;5.15;;
16845;SDS011;8539;53.188;8.696;2023-06-10T06:11:52;9.77;;;5.85;;
16845;SDS011;8539;53.188;8.696;2023-06-10T06:14:18;13.48;;;4.88;;
16845;SDS011;8539;53.188;8.696;2023-06-10T06:16:44;9.20;;;4.80;;
16845;SDS011;8539;53.188;8.696;2023-06-10T06:19:10;9.02;;;5.07;;
16845;SDS011;8539;53.188;8.696;2023-06-10T06:21:37;9.63;;;4.95;;
16845;SDS011;8539;53.188;8.696;2023-06-10T06:24:03;7.60;;;5.35;;
16845;SDS011;8539;53.188;8.696;2023-06-10T06:26:29;10.30;;;4.78;;
16845;SDS011;8539;53.188;8.696;2023-06-10T06:28:55;10.30;;;5.35;;
16845;SDS011;8539;53.188;8.696;2023-06-10T06:31:21;9.40;;;5.07;;
16845;SDS011;8539;53.188;8.696;2023-06-10T06:33:47;9.43;;;4.80;;
16845;SDS011;8539;53.188;8.696;2023-06-10T06:36:13;14.10;;;6.07;;
16845;SDS011;8539;53.188;8.696;2023-06-10T06:38:39;7.95;;;4.70;;
16845;SDS011;8539;53.188;8.696;2023-06-10T06:41:06;10.93;;;5.07;;
16845;SDS011;8539;53.188;8.696;2023-06-10T06:43:32;7.78;;;4.47;;
16845;SDS011;8539;53.188;8.696;2023-06-10T06:45:59;12.30;;;5.00;;
16845;SDS011;8539;53.188;8.696;2023-06-10T06:48:25;10.25;;;5.22;;
16845;SDS011;8539;53.188;8.696;2023-06-10T06:50:51;8.80;;;4.63;;
16845;SDS011;8539;53.188;8.696;2023-06-10T06:53:17;11.93;;;5.78;;
16845;SDS011;8539;53.188;8.696;2023-06-10T06:55:44;9.98;;;6.30;;
16845;SDS011;8539;53.188;8.696;2023-06-10T06:58:10;10.65;;;5.03;;
16845;SDS011;8539;53.188;8.696;2023-06-10T07:00:36;9.90;;;4.47;;
16845;SDS011;8539;53.188;8.696;2023-06-10T07:03:02;10.73;;;5.38;;
16845;SDS011;8539;53.188;8.696;2023-06-10T07:05:28;13.40;;;6.38;;
16845;SDS011;8539;53.188;8.696;2023-06-10T07:07:55;9.23;;;4.82;;
16845;SDS011;8539;53.188;8.696;2023-06-10T07:10:24;9.63;;;4.88;;
16845;SDS011;8539;53.188;8.696;2023-06-10T07:12:51;9.55;;;5.05;;
16845;SDS011;8539;53.188;8.696;2023-06-10T07:15:17;10.32;;;5.70;;
16845;SDS011;8539;53.188;8.696;2023-06-10T07:17:44;8.23;;;4.55;;
16845;SDS011;8539;53.188;8.696;2023-06-10T07:20:10;12.75;;;5.05;;
16845;SDS011;8539;53.188;8.696;2023-06-10T07:22:37;7.43;;;4.05;;
16845;SDS011;8539;53.188;8.696;2023-06-10T07:25:04;7.43;;;4.55;;
16845;SDS011;8539;53.188;8.696;2023-06-10T07:27:31;8.23;;;4.60;;
16845;SDS011;8539;53.188;8.696;2023-06-10T07:29:57;12.10;;;3.85;;
16845;SDS011;8539;53.188;8.696;2023-06-10T07:32:23;7.55;;;3.90;;
16845;SDS011;8539;53.188;8.696;2023-06-10T07:34:50;8.75;;;3.53;;
16845;SDS011;8539;53.188;8.696;2023-06-10T07:37:17;10.15;;;4.07;;
16845;SDS011;8539;53.188;8.696;2023-06-10T07:39:45;7.80;;;4.25;;
16845;SDS011;8539;53.188;8.696;2023-06-10T07:42:11;12.00;;;4.47;;
16845;SDS011;8539;53.188;8.696;2023-06-10T07:44:37;9.65;;;4.10;;
16845;SDS011;8539;53.188;8.696;2023-06-10T07:47:03;8.60;;;4.30;;
16845;SDS011;8539;53.188;8.696;2023-06-10T07:49:29;13.90;;;4.15;;
16845;SDS011;8539;53.188;8.696;2023-06-10T07:51:56;11.52;;;4.93;;
16845;SDS011;8539;53.188;8.696;2023-06-10T07:54:22;11.73;;;4.50;;
16845;SDS011;8539;53.188;8.696;2023-06-10T07:56:48;8.27;;;4.25;;
16845;SDS011;8539;53.188;8.696;2023-06-10T07:59:15;9.55;;;4.57;;
16845;SDS011;8539;53.188;8.696;2023-06-10T08:01:41;7.63;;;3.58;;
16845;SDS011;8539;53.188;8.696;2023-06-10T08:04:08;6.35;;;3.78;;
16845;SDS011;8539;53.188;8.696;2023-06-10T08:06:34;9.35;;;4.15;;
16845;SDS011;8539;53.188;8.696;2023-06-10T08:11:37;9.02;;;4.40;;
16845;SDS011;8539;53.188;8.696;2023-06-10T08:14:03;9.05;;;3.60;;
16845;SDS011;8539;53.188;8.696;2023-06-10T08:16:29;7.82;;;3.72;;
16845;SDS011;8539;53.188;8.696;2023-06-10T08:18:55;12.25;;;5.05;;
16845;SDS011;8539;53.188;8.696;2023-06-10T08:21:21;6.13;;;4.82;;
16845;SDS011;8539;53.188;8.696;2023-06-10T08:23:47;8.75;;;4.85;;
16845;SDS011;8539;53.188;8.696;2023-06-10T08:26:18;12.38;;;5.78;;
16845;SDS011;8539;53.188;8.696;2023-06-10T08:28:44;12.55;;;5.47;;
16845;SDS011;8539;53.188;8.696;2023-06-10T08:31:10;11.98;;;6.13;;
16845;SDS011;8539;53.188;8.696;2023-06-10T08:33:37;8.10;;;4.88;;
16845;SDS011;8539;53.188;8.696;2023-06-10T08:36:03;7.22;;;4.30;;
16845;SDS011;8539;53.188;8.696;2023-06-10T08:38:29;7.93;;;3.92;;
16845;SDS011;8539;53.188;8.696;2023-06-10T08:40:59;10.25;;;4.95;;
16845;SDS011;8539;53.188;8.696;2023-06-10T08:43:30;8.05;;;4.20;;
16845;SDS011;8539;53.188;8.696;2023-06-10T08:46:04;11.50;;;5.03;;
16845;SDS011;8539;53.188;8.696;2023-06-10T08:48:34;7.93;;;4.47;;
16845;SDS011;8539;53.188;8.696;2023-06-10T08:51:04;6.30;;;4.20;;
16845;SDS011;8539;53.188;8.696;2023-06-10T08:53:31;7.80;;;4.80;;
16845;SDS011;8539;53.188;8.696;2023-06-10T08:56:02;9.93;;;5.03;;
16845;SDS011;8539;53.188;8.696;2023-06-10T08:58:31;13.90;;;5.68;;
16845;SDS011;8539;53.188;8.696;2023-06-10T09:00:59;7.72;;;4.93;;
16845;SDS011;8539;53.188;8.696;2023-06-10T09:03:25;6.07;;;4.88;;
16845;SDS011;8539;53.188;8.696;2023-06-10T09:05:52;9.20;;;5.38;;
16845;SDS011;8539;53.188;8.696;2023-06-10T09:08:20;12.25;;;5.53;;
16845;SDS011;8539;53.188;8.696;2023-06-10T09:10:47;9.73;;;5.72;;
16845;SDS011;8539;53.188;8.696;2023-06-10T09:13:13;7.88;;;3.88;;
16845;SDS011;8539;53.188;8.696;2023-06-10T09:15:41;8.98;;;5.30;;
16845;SDS011;8539;53.188;8.696;2023-06-10T09:18:10;9.23;;;4.63;;
16845;SDS011;8539;53.188;8.696;2023-06-10T09:20:38;10.18;;;4.63;;
16845;SDS011;8539;53.188;8.696;2023-06-10T09:23:05;9.98;;;4.57;;
16845;SDS011;8539;53.188;8.696;2023-06-10T09:25:36;8.52;;;4.43;;
16845;SDS011;8539;53.188;8.696;2023-06-10T09:28:03;10.43;;;4.95;;
16845;SDS011;8539;53.188;8.696;2023-06-10T09:30:36;10.98;;;6.30;;
16845;SDS011;8539;53.188;8.696;2023-06-10T09:33:03;9.75;;;4.78;;
16845;SDS011;8539;53.188;8.696;2023-06-10T09:35:44;7.47;;;4.20;;
16845;SDS011;8539;53.188;8.696;2023-06-10T09:38:29;7.43;;;4.57;;
16845;SDS011;8539;53.188;8.696;2023-06-10T09:41:03;7.70;;;4.65;;
16845;SDS011;8539;53.188;8.696;2023-06-10T09:43:43;7.68;;;4.38;;
16845;SDS011;8539;53.188;8.696;2023-06-10T09:46:18;8.45;;;4.07;;
16845;SDS011;8539;53.188;8.696;2023-06-10T09:48:45;5.75;;;3.85;;
16845;SDS011;8539;53.188;8.696;2023-06-10T09:51:12;8.18;;;4.18;;
16845;SDS011;8539;53.188;8.696;2023-06-10T09:53:39;8.45;;;5.10;;
16845;SDS011;8539;53.188;8.696;2023-06-10T09:56:05;8.05;;;4.60;;
16845;SDS011;8539;53.188;8.696;2023-06-10T09:58:36;6.47;;;4.18;;
16845;SDS011;8539;53.188;8.696;2023-06-10T10:01:07;7.30;;;4.40;;
16845;SDS011;8539;53.188;8.696;2023-06-10T10:03:45;7.20;;;4.30;;
16845;SDS011;8539;53.188;8.696;2023-06-10T10:06:17;11.63;;;4.40;;
16845;SDS011;8539;53.188;8.696;2023-06-10T10:08:45;8.20;;;3.97;;
16845;SDS011;8539;53.188;8.696;2023-06-10T10:11:12;7.72;;;3.80;;
16845;SDS011;8539;53.188;8.696;2023-06-10T10:13:39;10.75;;;4.75;;
16845;SDS011;8539;53.188;8.696;2023-06-10T10:16:10;6.45;;;3.67;;
16845;SDS011;8539;53.188;8.696;2023-06-10T10:18:41;8.20;;;4.43;;
16845;SDS011;8539;53.188;8.696;2023-06-10T10:21:11;8.48;;;3.65;;
16845;SDS011;8539;53.188;8.696;2023-06-10T10:26:17;8.38;;;4.10;;
16845;SDS011;8539;53.188;8.696;2023-06-10T10:31:31;7.18;;;3.47;;
16845;SDS011;8539;53.188;8.696;2023-06-10T10:34:01;6.75;;;3.08;;
16845;SDS011;8539;53.188;8.696;2023-06-10T10:36:34;8.82;;;4.18;;
16845;SDS011;8539;53.188;8.696;2023-06-10T10:39:01;9.88;;;3.42;;
16845;SDS011;8539;53.188;8.696;2023-06-10T10:41:29;6.63;;;3.72;;
16845;SDS011;8539;53.188;8.696;2023-06-10T10:43:57;7.78;;;3.42;;
16845;SDS011;8539;53.188;8.696;2023-06-10T10:46:24;5.32;;;3.10;;
16845;SDS011;8539;53.188;8.696;2023-06-10T10:48:53;8.70;;;2.90;;
16845;SDS011;8539;53.188;8.696;2023-06-10T10:51:22;6.95;;;3.33;;
16845;SDS011;8539;53.188;8.696;2023-06-10T10:56:38;7.55;;;3.05;;
16845;SDS011;8539;53.188;8.696;2023-06-10T10:59:04;4.65;;;2.75;;
16845;SDS011;8539;53.188;8.696;2023-06-10T11:01:40;6.97;;;3.13;;
16845;SDS011;8539;53.188;8.696;2023-06-10T11:04:08;5.07;;;3.00;;
16845;SDS011;8539;53.188;8.696;2023-06-10T11:06:34;6.53;;;2.75;;
16845;SDS011;8539;53.188;8.696;2023-06-10T11:09:02;7.68;;;3.13;;
16845;SDS011;8539;53.188;8.696;2023-06-10T11:11:57;4.57;;;2.85;;
16845;SDS011;8539;53.188;8.696;2023-06-10T11:14:27;4.47;;;2.65;;
16845;SDS011;8539;53.188;8.696;2023-06-10T11:16:53;6.53;;;2.17;;
16845;SDS011;8539;53.188;8.696;2023-06-10T11:19:32;5.60;;;2.72;;
16845;SDS011;8539;53.188;8.696;2023-06-10T11:22:05;3.75;;;2.75;;
16845;SDS011;8539;53.188;8.696;2023-06-10T11:24:32;3.97;;;2.80;;
16845;SDS011;8539;53.188;8.696;2023-06-10T11:27:17;3.55;;;2.45;;
16845;SDS011;8539;53.188;8.696;2023-06-10T11:29:58;5.35;;;2.38;;
16845;SDS011;8539;53.188;8.696;2023-06-10T11:32:33;5.20;;;2.70;;
16845;SDS011;8539;53.188;8.696;2023-06-10T11:35:01;5.10;;;2.47;;
16845;SDS011;8539;53.188;8.696;2023-06-10T11:37:29;3.65;;;2.28;;
16845;SDS011;8539;53.188;8.696;2023-06-10T11:39:55;5.55;;;2.50;;
16845;SDS011;8539;53.188;8.696;2023-06-10T11:42:22;3.80;;;2.40;;
16845;SDS011;8539;53.188;8.696;2023-06-10T11:44:49;7.10;;;3.50;;
16845;SDS011;8539;53.188;8.696;2023-06-10T11:47:16;3.95;;;2.55;;
16845;SDS011;8539;53.188;8.696;2023-06-10T11:49:46;7.10;;;2.40;;
16845;SDS011;8539;53.188;8.696;2023-06-10T11:52:28;4.00;;;2.25;;
16845;SDS011;8539;53.188;8.696;2023-06-10T11:54:57;4.50;;;2.67;;
16845;SDS011;8539;53.188;8.696;2023-06-10T11:57:23;5.78;;;3.10;;
16845;SDS011;8539;53.188;8.696;2023-06-10T11:59:49;4.45;;;2.58;;
16845;SDS011;8539;53.188;8.696;2023-06-10T12:02:15;4.07;;;2.53;;
16845;SDS011;8539;53.188;8.696;2023-06-10T12:04:42;3.63;;;2.65;;
16845;SDS011;8539;53.188;8.696;2023-06-10T12:07:08;4.05;;;2.67;;
16845;SDS011;8539;53.188;8.696;2023-06-10T12:09:42;5.18;;;2.65;;
16845;SDS011;8539;53.188;8.696;2023-06-10T12:12:08;6.05;;;2.47;;
16845;SDS011;8539;53.188;8.696;2023-06-10T12:14:49;4.50;;;2.55;;
16845;SDS011;8539;53.188;8.696;2023-06-10T12:19:57;6.32;;;2.40;;
16845;SDS011;8539;53.188;8.696;2023-06-10T12:22:24;6.95;;;2.95;;
16845;SDS011;8539;53.188;8.696;2023-06-10T12:24:57;5.32;;;2.08;;
16845;SDS011;8539;53.188;8.696;2023-06-10T12:27:28;3.97;;;2.13;;
16845;SDS011;8539;53.188;8.696;2023-06-10T12:29:56;3.53;;;2.58;;
16845;SDS011;8539;53.188;8.696;2023-06-10T12:32:34;6.10;;;2.13;;
16845;SDS011;8539;53.188;8.696;2023-06-10T12:35:06;4.78;;;2.33;;
16845;SDS011;8539;53.188;8.696;2023-06-10T12:37:34;5.65;;;2.60;;
16845;SDS011;8539;53.188;8.696;2023-06-10T12:40:01;6.10;;;2.47;;
16845;SDS011;8539;53.188;8.696;2023-06-10T12:42:29;4.60;;;2.60;;
16845;SDS011;8539;53.188;8.696;2023-06-10T12:44:56;4.47;;;2.22;;
16845;SDS011;8539;53.188;8.696;2023-06-10T12:47:29;5.88;;;2.50;;
16845;SDS011;8539;53.188;8.696;2023-06-10T12:50:00;3.60;;;2.33;;
16845;SDS011;8539;53.188;8.696;2023-06-10T12:52:28;4.03;;;2.00;;
16845;SDS011;8539;53.188;8.696;2023-06-10T12:54:54;7.03;;;2.50;;
16845;SDS011;8539;53.188;8.696;2023-06-10T12:57:21;5.43;;;2.90;;
16845;SDS011;8539;53.188;8.696;2023-06-10T12:59:48;3.58;;;2.45;;
16845;SDS011;8539;53.188;8.696;2023-06-10T13:02:25;5.00;;;2.63;;
16845;SDS011;8539;53.188;8.696;2023-06-10T13:04:51;3.72;;;2.15;;
16845;SDS011;8539;53.188;8.696;2023-06-10T13:07:17;7.32;;;2.47;;
16845;SDS011;8539;53.188;8.696;2023-06-10T13:09:44;5.65;;;2.60;;
16845;SDS011;8539;53.188;8.696;2023-06-10T13:12:10;3.90;;;2.75;;
16845;SDS011;8539;53.188;8.696;2023-06-10T13:14:37;8.52;;;2.72;;
16845;SDS011;8539;53.188;8.696;2023-06-10T13:17:04;4.72;;;2.28;;
16845;SDS011;8539;53.188;8.696;2023-06-10T13:19:32;4.30;;;2.72;;
16845;SDS011;8539;53.188;8.696;2023-06-10T13:21:59;9.05;;;2.83;;
16845;SDS011;8539;53.188;8.696;2023-06-10T13:24:25;4.68;;;2.75;;
16845;SDS011;8539;53.188;8.696;2023-06-10T13:26:52;5.53;;;2.72;;
16845;SDS011;8539;53.188;8.696;2023-06-10T13:29:20;4.63;;;2.30;;
16845;SDS011;8539;53.188;8.696;2023-06-10T13:31:46;4.95;;;2.50;;
16845;SDS011;8539;53.188;8.696;2023-06-10T13:34:12;9.20;;;2.80;;
16845;SDS011;8539;53.188;8.696;2023-06-10T13:36:39;5.93;;;2.35;;
16845;SDS011;8539;53.188;8.696;2023-06-10T13:39:06;3.15;;;2.75;;
16845;SDS011;8539;53.188;8.696;2023-06-10T13:41:32;4.15;;;2.38;;
16845;SDS011;8539;53.188;8.696;2023-06-10T13:43:58;7.07;;;3.00;;
16845;SDS011;8539;53.188;8.696;2023-06-10T13:46:24;5.90;;;2.58;;
16845;SDS011;8539;53.188;8.696;2023-06-10T13:48:51;4.85;;;2.40;;
16845;SDS011;8539;53.188;8.696;2023-06-10T13:51:17;6.07;;;2.55;;
16845;SDS011;8539;53.188;8.696;2023-06-10T13:53:43;4.25;;;2.75;;
16845;SDS011;8539;53.188;8.696;2023-06-10T13:56:11;4.63;;;2.88;;
16845;SDS011;8539;53.188;8.696;2023-06-10T13:58:38;5.35;;;3.00;;
16845;SDS011;8539;53.188;8.696;2023-06-10T14:01:06;5.05;;;2.88;;
16845;SDS011;8539;53.188;8.696;2023-06-10T14:03:33;5.72;;;2.75;;
16845;SDS011;8539;53.188;8.696;2023-06-10T14:05:59;5.93;;;2.80;;
16845;SDS011;8539;53.188;8.696;2023-06-10T14:08:25;9.27;;;3.20;;
16845;SDS011;8539;53.188;8.696;2023-06-10T14:10:51;5.97;;;3.00;;
16845;SDS011;8539;53.188;8.696;2023-06-10T14:13:18;5.03;;;3.05;;
16845;SDS011;8539;53.188;8.696;2023-06-10T14:15:45;4.60;;;2.83;;
16845;SDS011;8539;53.188;8.696;2023-06-10T14:18:12;5.00;;;2.72;;
16845;SDS011;8539;53.188;8.696;2023-06-10T14:20:38;4.47;;;2.65;;
16845;SDS011;8539;53.188;8.696;2023-06-10T14:23:04;5.28;;;3.20;;
16845;SDS011;8539;53.188;8.696;2023-06-10T14:25:30;6.60;;;3.85;;
16845;SDS011;8539;53.188;8.696;2023-06-10T14:27:57;3.42;;;2.97;;
16845;SDS011;8539;53.188;8.696;2023-06-10T14:30:23;7.50;;;3.35;;
16845;SDS011;8539;53.188;8.696;2023-06-10T14:32:49;5.82;;;3.75;;
16845;SDS011;8539;53.188;8.696;2023-06-10T14:35:15;5.32;;;3.30;;
16845;SDS011;8539;53.188;8.696;2023-06-10T14:37:41;4.43;;;3.28;;
16845;SDS011;8539;53.188;8.696;2023-06-10T14:40:08;3.35;;;2.70;;
16845;SDS011;8539;53.188;8.696;2023-06-10T14:42:34;6.70;;;4.13;;
16845;SDS011;8539;53.188;8.696;2023-06-10T14:45:00;4.80;;;3.13;;
16845;SDS011;8539;53.188;8.696;2023-06-10T14:47:26;5.43;;;3.83;;
16845;SDS011;8539;53.188;8.696;2023-06-10T14:49:52;5.88;;;3.42;;
16845;SDS011;8539;53.188;8.696;2023-06-10T14:52:18;8.80;;;3.92;;
16845;SDS011;8539;53.188;8.696;2023-06-10T14:54:44;4.63;;;3.10;;
16845;SDS011;8539;53.188;8.696;2023-06-10T14:57:11;4.72;;;3.63;;
16845;SDS011;8539;53.188;8.696;2023-06-10T14:59:37;6.40;;;4.30;;
16845;SDS011;8539;53.188;8.696;2023-06-10T15:02:03;6.05;;;3.47;;
16845;SDS011;8539;53.188;8.696;2023-06-10T15:04:29;6.07;;;3.65;;
16845;SDS011;8539;53.188;8.696;2023-06-10T15:06:55;5.03;;;3.45;;
16845;SDS011;8539;53.188;8.696;2023-06-10T15:09:21;4.40;;;3.60;;
16845;SDS011;8539;53.188;8.696;2023-06-10T15:11:47;4.55;;;3.30;;
16845;SDS011;8539;53.188;8.696;2023-06-10T15:14:14;4.95;;;3.30;;
16845;SDS011;8539;53.188;8.696;2023-06-10T15:16:41;7.68;;;3.67;;
16845;SDS011;8539;53.188;8.696;2023-06-10T15:19:07;7.70;;;4.13;;